sensor_id;sensor_type;location;lat;lon;timestamp;P1;durP1;ratioP1;P2;durP2;ratioP2
20758;SDS011;10539;53.686;9.158;2023-06-26T00:00:29;13.70;;;10.70;;
20758;SDS011;10539;53.686;9.158;2023-06-26T00:02:55;12.30;;;11.02;;
20758;SDS011;10539;53.686;9.158;2023-06-26T00:05:21;14.00;;;11.32;;
20758;SDS011;10539;53.686;9.158;2023-06-26T00:07:46;13.50;;;11.70;;
20758;SDS011;10539;53.686;9.158;2023-06-26T00:10:12;11.65;;;10.45;;
20758;SDS011;10539;53.686;9.158;2023-06-26T00:12:38;15.85;;;11.57;;
20758;SDS011;10539;53.686;9.158;2023-06-26T00:15:04;12.77;;;11.23;;
20758;SDS011;10539;53.686;9.158;2023-06-26T00:17:30;17.05;;;11.82;;
20758;SDS011;10539;53.686;9.158;2023-06-26T00:20:02;13.55;;;11.63;;
20758;SDS011;10539;53.686;9.158;2023-06-26T00:22:30;12.50;;;11.20;;
20758;SDS011;10539;53.686;9.158;2023-06-26T00:24:56;13.82;;;12.00;;
20758;SDS011;10539;53.686;9.158;2023-06-26T00:27:22;13.35;;;11.65;;
20758;SDS011;10539;53.686;9.158;2023-06-26T00:29:48;12.60;;;11.35;;
20758;SDS011;10539;53.686;9.158;2023-06-26T00:32:13;13.05;;;11.73;;
20758;SDS011;10539;53.686;9.158;2023-06-26T00:34:39;12.55;;;11.25;;
20758;SDS011;10539;53.686;9.158;2023-06-26T00:37:05;13.18;;;11.65;;
20758;SDS011;10539;53.686;9.158;2023-06-26T00:39:30;14.85;;;11.95;;
20758;SDS011;10539;53.686;9.158;2023-06-26T00:41:56;14.32;;;11.68;;
20758;SDS011;10539;53.686;9.158;2023-06-26T00:44:22;12.60;;;11.30;;
20758;SDS011;10539;53.686;9.158;2023-06-26T00:46:48;13.27;;;11.90;;
20758;SDS011;10539;53.686;9.158;2023-06-26T00:49:13;13.25;;;11.85;;
20758;SDS011;10539;53.686;9.158;2023-06-26T00:51:39;13.82;;;12.02;;
20758;SDS011;10539;53.686;9.158;2023-06-26T00:54:05;13.43;;;12.05;;
20758;SDS011;10539;53.686;9.158;2023-06-26T00:56:31;13.20;;;11.90;;
20758;SDS011;10539;53.686;9.158;2023-06-26T00:58:58;15.07;;;12.20;;
20758;SDS011;10539;53.686;9.158;2023-06-26T01:01:24;14.85;;;11.68;;
20758;SDS011;10539;53.686;9.158;2023-06-26T01:03:51;17.27;;;12.75;;
20758;SDS011;10539;53.686;9.158;2023-06-26T01:06:18;13.60;;;12.20;;
20758;SDS011;10539;53.686;9.158;2023-06-26T01:08:46;14.20;;;12.05;;
20758;SDS011;10539;53.686;9.158;2023-06-26T01:11:13;14.75;;;12.40;;
20758;SDS011;10539;53.686;9.158;2023-06-26T01:13:39;15.73;;;12.88;;
20758;SDS011;10539;53.686;9.158;2023-06-26T01:16:09;15.07;;;12.70;;
20758;SDS011;10539;53.686;9.158;2023-06-26T01:18:35;14.18;;;11.88;;
20758;SDS011;10539;53.686;9.158;2023-06-26T01:21:08;14.15;;;12.50;;
20758;SDS011;10539;53.686;9.158;2023-06-26T01:26:25;15.60;;;12.80;;
20758;SDS011;10539;53.686;9.158;2023-06-26T01:28:54;14.38;;;12.88;;
20758;SDS011;10539;53.686;9.158;2023-06-26T01:31:22;14.43;;;12.93;;
20758;SDS011;10539;53.686;9.158;2023-06-26T01:33:49;13.32;;;11.95;;
20758;SDS011;10539;53.686;9.158;2023-06-26T01:36:15;14.18;;;12.68;;
20758;SDS011;10539;53.686;9.158;2023-06-26T01:38:42;17.60;;;13.40;;
20758;SDS011;10539;53.686;9.158;2023-06-26T01:41:07;16.55;;;13.05;;
20758;SDS011;10539;53.686;9.158;2023-06-26T01:47:06;14.55;;;13.05;;
20758;SDS011;10539;53.686;9.158;2023-06-26T01:49:44;14.70;;;12.80;;
20758;SDS011;10539;53.686;9.158;2023-06-26T01:55:05;15.23;;;13.02;;
20758;SDS011;10539;53.686;9.158;2023-06-26T01:57:41;15.20;;;13.60;;
20758;SDS011;10539;53.686;9.158;2023-06-26T02:00:08;18.42;;;14.40;;
20758;SDS011;10539;53.686;9.158;2023-06-26T02:02:36;15.52;;;13.52;;
20758;SDS011;10539;53.686;9.158;2023-06-26T02:05:02;14.80;;;13.05;;
20758;SDS011;10539;53.686;9.158;2023-06-26T02:07:28;16.52;;;13.80;;
20758;SDS011;10539;53.686;9.158;2023-06-26T02:09:54;15.93;;;13.57;;
20758;SDS011;10539;53.686;9.158;2023-06-26T02:12:20;16.77;;;13.95;;
20758;SDS011;10539;53.686;9.158;2023-06-26T02:14:45;15.85;;;13.32;;
20758;SDS011;10539;53.686;9.158;2023-06-26T02:17:11;15.48;;;13.52;;
20758;SDS011;10539;53.686;9.158;2023-06-26T02:19:37;16.63;;;13.40;;
20758;SDS011;10539;53.686;9.158;2023-06-26T02:22:10;17.30;;;13.65;;
20758;SDS011;10539;53.686;9.158;2023-06-26T02:24:36;15.70;;;13.38;;
20758;SDS011;10539;53.686;9.158;2023-06-26T02:27:02;15.00;;;13.13;;
20758;SDS011;10539;53.686;9.158;2023-06-26T02:29:28;15.52;;;13.27;;
20758;SDS011;10539;53.686;9.158;2023-06-26T02:31:54;20.52;;;13.18;;
20758;SDS011;10539;53.686;9.158;2023-06-26T02:34:20;17.95;;;13.77;;
20758;SDS011;10539;53.686;9.158;2023-06-26T02:36:45;18.92;;;13.73;;
20758;SDS011;10539;53.686;9.158;2023-06-26T02:39:11;16.25;;;13.98;;
20758;SDS011;10539;53.686;9.158;2023-06-26T02:41:37;17.52;;;14.35;;
20758;SDS011;10539;53.686;9.158;2023-06-26T02:44:03;15.98;;;14.13;;
20758;SDS011;10539;53.686;9.158;2023-06-26T02:46:29;17.52;;;14.68;;
20758;SDS011;10539;53.686;9.158;2023-06-26T02:48:54;18.63;;;15.40;;
20758;SDS011;10539;53.686;9.158;2023-06-26T02:51:20;16.73;;;14.90;;
20758;SDS011;10539;53.686;9.158;2023-06-26T02:53:46;18.23;;;15.95;;
20758;SDS011;10539;53.686;9.158;2023-06-26T02:56:11;18.55;;;15.57;;
20758;SDS011;10539;53.686;9.158;2023-06-26T02:58:37;18.83;;;15.32;;
20758;SDS011;10539;53.686;9.158;2023-06-26T03:01:03;17.50;;;15.25;;
20758;SDS011;10539;53.686;9.158;2023-06-26T03:03:29;19.08;;;16.00;;
20758;SDS011;10539;53.686;9.158;2023-06-26T03:05:54;22.10;;;15.90;;
20758;SDS011;10539;53.686;9.158;2023-06-26T03:08:20;18.67;;;15.23;;
20758;SDS011;10539;53.686;9.158;2023-06-26T03:10:46;16.13;;;14.43;;
20758;SDS011;10539;53.686;9.158;2023-06-26T03:13:11;16.35;;;14.65;;
20758;SDS011;10539;53.686;9.158;2023-06-26T03:15:37;21.88;;;14.45;;
20758;SDS011;10539;53.686;9.158;2023-06-26T03:18:02;20.00;;;14.20;;
20758;SDS011;10539;53.686;9.158;2023-06-26T03:20:28;19.10;;;13.68;;
20758;SDS011;10539;53.686;9.158;2023-06-26T03:23:00;17.45;;;14.10;;
20758;SDS011;10539;53.686;9.158;2023-06-26T03:25:26;15.35;;;13.55;;
20758;SDS011;10539;53.686;9.158;2023-06-26T03:27:52;15.82;;;13.43;;
20758;SDS011;10539;53.686;9.158;2023-06-26T03:30:17;19.15;;;14.55;;
20758;SDS011;10539;53.686;9.158;2023-06-26T03:32:43;15.48;;;13.82;;
20758;SDS011;10539;53.686;9.158;2023-06-26T03:35:09;16.63;;;14.18;;
20758;SDS011;10539;53.686;9.158;2023-06-26T03:37:34;17.45;;;13.13;;
20758;SDS011;10539;53.686;9.158;2023-06-26T03:40:00;14.82;;;13.23;;
20758;SDS011;10539;53.686;9.158;2023-06-26T03:42:26;17.67;;;14.13;;
20758;SDS011;10539;53.686;9.158;2023-06-26T03:44:52;22.13;;;14.43;;
20758;SDS011;10539;53.686;9.158;2023-06-26T03:47:17;15.65;;;13.95;;
20758;SDS011;10539;53.686;9.158;2023-06-26T03:49:43;15.63;;;13.25;;
20758;SDS011;10539;53.686;9.158;2023-06-26T03:52:09;19.05;;;13.55;;
20758;SDS011;10539;53.686;9.158;2023-06-26T03:54:34;14.38;;;12.88;;
20758;SDS011;10539;53.686;9.158;2023-06-26T03:57:00;16.40;;;13.57;;
20758;SDS011;10539;53.686;9.158;2023-06-26T03:59:26;16.60;;;13.00;;
20758;SDS011;10539;53.686;9.158;2023-06-26T04:01:51;13.77;;;12.38;;
20758;SDS011;10539;53.686;9.158;2023-06-26T04:04:18;13.80;;;12.30;;
20758;SDS011;10539;53.686;9.158;2023-06-26T04:06:44;15.02;;;12.70;;
20758;SDS011;10539;53.686;9.158;2023-06-26T04:09:09;16.23;;;13.05;;
20758;SDS011;10539;53.686;9.158;2023-06-26T04:11:35;16.45;;;12.27;;
20758;SDS011;10539;53.686;9.158;2023-06-26T04:14:01;15.90;;;12.10;;
20758;SDS011;10539;53.686;9.158;2023-06-26T04:16:28;14.18;;;11.75;;
20758;SDS011;10539;53.686;9.158;2023-06-26T04:18:54;13.50;;;12.05;;
20758;SDS011;10539;53.686;9.158;2023-06-26T04:21:21;17.50;;;11.98;;
20758;SDS011;10539;53.686;9.158;2023-06-26T04:23:50;12.38;;;11.07;;
20758;SDS011;10539;53.686;9.158;2023-06-26T04:26:16;13.02;;;11.63;;
20758;SDS011;10539;53.686;9.158;2023-06-26T04:28:41;17.25;;;12.23;;
20758;SDS011;10539;53.686;9.158;2023-06-26T04:31:08;13.00;;;11.43;;
20758;SDS011;10539;53.686;9.158;2023-06-26T04:33:34;12.93;;;11.52;;
20758;SDS011;10539;53.686;9.158;2023-06-26T04:36:03;13.73;;;11.23;;
20758;SDS011;10539;53.686;9.158;2023-06-26T04:38:30;14.10;;;11.18;;
20758;SDS011;10539;53.686;9.158;2023-06-26T04:41:02;14.73;;;10.38;;
20758;SDS011;10539;53.686;9.158;2023-06-26T04:43:28;14.00;;;10.35;;
20758;SDS011;10539;53.686;9.158;2023-06-26T04:45:53;13.07;;;10.10;;
20758;SDS011;10539;53.686;9.158;2023-06-26T04:48:19;13.95;;;10.10;;
20758;SDS011;10539;53.686;9.158;2023-06-26T04:50:45;12.85;;;10.75;;
20758;SDS011;10539;53.686;9.158;2023-06-26T04:53:18;14.23;;;10.32;;
20758;SDS011;10539;53.686;9.158;2023-06-26T04:55:45;16.58;;;10.68;;
20758;SDS011;10539;53.686;9.158;2023-06-26T04:58:10;12.43;;;10.40;;
20758;SDS011;10539;53.686;9.158;2023-06-26T05:00:36;11.27;;;9.77;;
20758;SDS011;10539;53.686;9.158;2023-06-26T05:03:02;13.52;;;10.23;;
20758;SDS011;10539;53.686;9.158;2023-06-26T05:05:28;12.82;;;10.02;;
20758;SDS011;10539;53.686;9.158;2023-06-26T05:07:54;11.50;;;9.95;;
20758;SDS011;10539;53.686;9.158;2023-06-26T05:10:21;13.93;;;10.40;;
20758;SDS011;10539;53.686;9.158;2023-06-26T05:12:47;11.27;;;9.80;;
20758;SDS011;10539;53.686;9.158;2023-06-26T05:15:12;13.90;;;10.05;;
20758;SDS011;10539;53.686;9.158;2023-06-26T05:17:38;13.95;;;9.77;;
20758;SDS011;10539;53.686;9.158;2023-06-26T05:20:04;11.45;;;9.85;;
20758;SDS011;10539;53.686;9.158;2023-06-26T05:22:31;12.75;;;10.50;;
20758;SDS011;10539;53.686;9.158;2023-06-26T05:24:58;13.65;;;9.32;;
20758;SDS011;10539;53.686;9.158;2023-06-26T05:27:26;11.93;;;9.15;;
20758;SDS011;10539;53.686;9.158;2023-06-26T05:29:52;12.98;;;8.90;;
20758;SDS011;10539;53.686;9.158;2023-06-26T05:32:18;11.75;;;9.15;;
20758;SDS011;10539;53.686;9.158;2023-06-26T05:34:47;12.75;;;8.88;;
20758;SDS011;10539;53.686;9.158;2023-06-26T05:37:14;12.98;;;9.38;;
20758;SDS011;10539;53.686;9.158;2023-06-26T05:39:47;10.85;;;8.52;;
20758;SDS011;10539;53.686;9.158;2023-06-26T05:42:13;9.43;;;8.50;;
20758;SDS011;10539;53.686;9.158;2023-06-26T05:44:39;10.93;;;8.27;;
20758;SDS011;10539;53.686;9.158;2023-06-26T05:47:05;10.15;;;8.27;;
20758;SDS011;10539;53.686;9.158;2023-06-26T05:49:31;10.95;;;7.85;;
20758;SDS011;10539;53.686;9.158;2023-06-26T05:51:57;9.05;;;7.90;;
20758;SDS011;10539;53.686;9.158;2023-06-26T05:54:23;9.05;;;7.53;;
20758;SDS011;10539;53.686;9.158;2023-06-26T05:56:50;8.82;;;7.93;;
20758;SDS011;10539;53.686;9.158;2023-06-26T05:59:21;10.15;;;7.82;;
20758;SDS011;10539;53.686;9.158;2023-06-26T06:01:47;10.52;;;7.72;;
20758;SDS011;10539;53.686;9.158;2023-06-26T06:04:13;12.52;;;7.50;;
20758;SDS011;10539;53.686;9.158;2023-06-26T06:06:39;8.88;;;7.60;;
20758;SDS011;10539;53.686;9.158;2023-06-26T06:09:05;11.05;;;6.95;;
20758;SDS011;10539;53.686;9.158;2023-06-26T06:11:31;9.10;;;8.10;;
20758;SDS011;10539;53.686;9.158;2023-06-26T06:13:57;9.00;;;7.40;;
20758;SDS011;10539;53.686;9.158;2023-06-26T06:16:24;10.07;;;6.55;;
20758;SDS011;10539;53.686;9.158;2023-06-26T06:18:50;10.25;;;6.82;;
20758;SDS011;10539;53.686;9.158;2023-06-26T06:21:16;8.38;;;7.28;;
20758;SDS011;10539;53.686;9.158;2023-06-26T06:23:42;9.68;;;6.68;;
20758;SDS011;10539;53.686;9.158;2023-06-26T06:26:08;13.18;;;6.97;;
20758;SDS011;10539;53.686;9.158;2023-06-26T06:28:34;12.10;;;7.13;;
20758;SDS011;10539;53.686;9.158;2023-06-26T06:30:59;9.60;;;7.63;;
20758;SDS011;10539;53.686;9.158;2023-06-26T06:33:25;8.80;;;6.60;;
20758;SDS011;10539;53.686;9.158;2023-06-26T06:35:51;10.43;;;7.55;;
20758;SDS011;10539;53.686;9.158;2023-06-26T06:38:16;9.75;;;7.25;;
20758;SDS011;10539;53.686;9.158;2023-06-26T06:40:42;12.05;;;7.47;;
20758;SDS011;10539;53.686;9.158;2023-06-26T06:43:11;8.13;;;6.70;;
20758;SDS011;10539;53.686;9.158;2023-06-26T06:45:37;7.93;;;6.50;;
20758;SDS011;10539;53.686;9.158;2023-06-26T06:48:03;8.32;;;6.88;;
20758;SDS011;10539;53.686;9.158;2023-06-26T06:50:29;10.93;;;6.40;;
20758;SDS011;10539;53.686;9.158;2023-06-26T06:52:55;7.10;;;6.05;;
20758;SDS011;10539;53.686;9.158;2023-06-26T06:55:22;7.10;;;6.25;;
20758;SDS011;10539;53.686;9.158;2023-06-26T06:57:49;11.60;;;6.18;;
20758;SDS011;10539;53.686;9.158;2023-06-26T07:00:15;9.57;;;6.50;;
20758;SDS011;10539;53.686;9.158;2023-06-26T07:02:45;7.50;;;6.28;;
20758;SDS011;10539;53.686;9.158;2023-06-26T07:05:11;12.25;;;7.18;;
20758;SDS011;10539;53.686;9.158;2023-06-26T07:07:38;10.80;;;7.07;;
20758;SDS011;10539;53.686;9.158;2023-06-26T07:10:05;11.85;;;6.43;;
20758;SDS011;10539;53.686;9.158;2023-06-26T07:12:33;8.05;;;6.78;;
20758;SDS011;10539;53.686;9.158;2023-06-26T07:15:00;9.15;;;6.65;;
20758;SDS011;10539;53.686;9.158;2023-06-26T07:17:28;7.72;;;6.30;;
20758;SDS011;10539;53.686;9.158;2023-06-26T07:19:53;10.45;;;7.10;;
20758;SDS011;10539;53.686;9.158;2023-06-26T07:22:19;7.78;;;6.13;;
20758;SDS011;10539;53.686;9.158;2023-06-26T07:24:48;9.18;;;6.45;;
20758;SDS011;10539;53.686;9.158;2023-06-26T07:27:15;9.05;;;7.22;;
20758;SDS011;10539;53.686;9.158;2023-06-26T07:29:41;7.20;;;6.38;;
20758;SDS011;10539;53.686;9.158;2023-06-26T07:32:07;8.75;;;6.50;;
20758;SDS011;10539;53.686;9.158;2023-06-26T07:34:33;11.02;;;6.60;;
20758;SDS011;10539;53.686;9.158;2023-06-26T07:36:59;7.88;;;6.07;;
20758;SDS011;10539;53.686;9.158;2023-06-26T07:39:25;9.55;;;6.80;;
20758;SDS011;10539;53.686;9.158;2023-06-26T07:41:50;9.68;;;6.88;;
20758;SDS011;10539;53.686;9.158;2023-06-26T07:44:16;8.88;;;7.03;;
20758;SDS011;10539;53.686;9.158;2023-06-26T07:46:42;13.10;;;7.20;;
20758;SDS011;10539;53.686;9.158;2023-06-26T07:49:08;10.88;;;7.38;;
20758;SDS011;10539;53.686;9.158;2023-06-26T07:51:33;12.93;;;8.20;;
20758;SDS011;10539;53.686;9.158;2023-06-26T07:53:59;10.48;;;8.40;;
20758;SDS011;10539;53.686;9.158;2023-06-26T07:56:25;10.32;;;8.15;;
20758;SDS011;10539;53.686;9.158;2023-06-26T07:58:51;15.07;;;8.88;;
20758;SDS011;10539;53.686;9.158;2023-06-26T08:01:17;11.23;;;8.95;;
20758;SDS011;10539;53.686;9.158;2023-06-26T08:03:43;11.95;;;8.35;;
20758;SDS011;10539;53.686;9.158;2023-06-26T08:06:09;16.92;;;9.75;;
20758;SDS011;10539;53.686;9.158;2023-06-26T08:08:35;10.85;;;8.60;;
20758;SDS011;10539;53.686;9.158;2023-06-26T08:11:01;10.60;;;8.88;;
20758;SDS011;10539;53.686;9.158;2023-06-26T08:13:27;13.90;;;9.55;;
20758;SDS011;10539;53.686;9.158;2023-06-26T08:15:52;10.60;;;8.90;;
20758;SDS011;10539;53.686;9.158;2023-06-26T08:18:18;14.02;;;9.80;;
20758;SDS011;10539;53.686;9.158;2023-06-26T08:20:44;18.98;;;10.40;;
20758;SDS011;10539;53.686;9.158;2023-06-26T08:23:10;17.10;;;10.23;;
20758;SDS011;10539;53.686;9.158;2023-06-26T08:25:36;15.23;;;10.38;;
20758;SDS011;10539;53.686;9.158;2023-06-26T08:28:01;15.80;;;10.55;;
20758;SDS011;10539;53.686;9.158;2023-06-26T08:30:28;17.92;;;10.15;;
20758;SDS011;10539;53.686;9.158;2023-06-26T08:32:57;15.52;;;11.90;;
20758;SDS011;10539;53.686;9.158;2023-06-26T08:35:23;14.07;;;11.10;;
20758;SDS011;10539;53.686;9.158;2023-06-26T08:37:49;21.48;;;11.60;;
20758;SDS011;10539;53.686;9.158;2023-06-26T08:40:16;17.40;;;11.45;;
20758;SDS011;10539;53.686;9.158;2023-06-26T08:42:44;17.80;;;12.10;;
20758;SDS011;10539;53.686;9.158;2023-06-26T08:45:10;17.98;;;12.48;;
20758;SDS011;10539;53.686;9.158;2023-06-26T08:47:36;13.65;;;11.65;;
20758;SDS011;10539;53.686;9.158;2023-06-26T08:50:12;17.10;;;10.93;;
20758;SDS011;10539;53.686;9.158;2023-06-26T08:55:26;15.80;;;11.57;;
20758;SDS011;10539;53.686;9.158;2023-06-26T08:57:54;14.25;;;10.75;;
20758;SDS011;10539;53.686;9.158;2023-06-26T09:00:20;14.38;;;10.00;;
20758;SDS011;10539;53.686;9.158;2023-06-26T09:02:46;23.90;;;11.68;;
20758;SDS011;10539;53.686;9.158;2023-06-26T09:05:11;16.58;;;11.30;;
20758;SDS011;10539;53.686;9.158;2023-06-26T09:07:37;25.45;;;13.90;;
20758;SDS011;10539;53.686;9.158;2023-06-26T09:10:03;25.95;;;12.52;;
20758;SDS011;10539;53.686;9.158;2023-06-26T09:12:29;18.70;;;10.40;;
20758;SDS011;10539;53.686;9.158;2023-06-26T09:14:56;12.10;;;8.45;;
20758;SDS011;10539;53.686;9.158;2023-06-26T09:17:27;13.15;;;7.97;;
20758;SDS011;10539;53.686;9.158;2023-06-26T09:19:55;13.75;;;9.45;;
20758;SDS011;10539;53.686;9.158;2023-06-26T09:22:21;13.60;;;8.88;;
20758;SDS011;10539;53.686;9.158;2023-06-26T09:24:48;13.63;;;8.63;;
20758;SDS011;10539;53.686;9.158;2023-06-26T09:27:14;12.80;;;7.22;;
20758;SDS011;10539;53.686;9.158;2023-06-26T09:29:40;16.48;;;7.90;;
20758;SDS011;10539;53.686;9.158;2023-06-26T09:32:07;16.00;;;7.35;;
20758;SDS011;10539;53.686;9.158;2023-06-26T09:34:34;16.52;;;8.27;;
20758;SDS011;10539;53.686;9.158;2023-06-26T09:37:00;16.50;;;8.07;;
20758;SDS011;10539;53.686;9.158;2023-06-26T09:39:30;20.85;;;8.07;;
20758;SDS011;10539;53.686;9.158;2023-06-26T09:41:56;19.05;;;8.45;;
20758;SDS011;10539;53.686;9.158;2023-06-26T09:44:22;19.73;;;8.00;;
20758;SDS011;10539;53.686;9.158;2023-06-26T09:46:48;21.35;;;8.25;;
20758;SDS011;10539;53.686;9.158;2023-06-26T09:49:14;20.10;;;8.50;;
20758;SDS011;10539;53.686;9.158;2023-06-26T09:51:41;19.70;;;8.40;;
20758;SDS011;10539;53.686;9.158;2023-06-26T09:54:07;16.17;;;8.52;;
20758;SDS011;10539;53.686;9.158;2023-06-26T09:56:35;18.10;;;8.15;;
20758;SDS011;10539;53.686;9.158;2023-06-26T09:59:04;18.42;;;8.43;;
20758;SDS011;10539;53.686;9.158;2023-06-26T10:01:31;21.55;;;7.55;;
20758;SDS011;10539;53.686;9.158;2023-06-26T10:03:57;21.40;;;8.20;;
20758;SDS011;10539;53.686;9.158;2023-06-26T10:06:27;19.05;;;6.80;;
20758;SDS011;10539;53.686;9.158;2023-06-26T10:09:01;18.42;;;6.70;;
20758;SDS011;10539;53.686;9.158;2023-06-26T10:11:40;18.95;;;5.82;;
20758;SDS011;10539;53.686;9.158;2023-06-26T10:14:11;14.98;;;6.30;;
20758;SDS011;10539;53.686;9.158;2023-06-26T10:16:38;10.88;;;4.65;;
20758;SDS011;10539;53.686;9.158;2023-06-26T10:19:08;10.75;;;3.83;;
20758;SDS011;10539;53.686;9.158;2023-06-26T10:21:36;12.93;;;4.00;;
20758;SDS011;10539;53.686;9.158;2023-06-26T10:24:04;11.65;;;3.67;;
20758;SDS011;10539;53.686;9.158;2023-06-26T10:26:31;9.98;;;3.67;;
20758;SDS011;10539;53.686;9.158;2023-06-26T10:29:03;10.48;;;3.30;;
20758;SDS011;10539;53.686;9.158;2023-06-26T10:31:30;12.68;;;3.10;;
20758;SDS011;10539;53.686;9.158;2023-06-26T10:33:57;11.27;;;2.90;;
20758;SDS011;10539;53.686;9.158;2023-06-26T10:36:32;13.23;;;3.28;;
20758;SDS011;10539;53.686;9.158;2023-06-26T10:39:04;9.88;;;2.65;;
20758;SDS011;10539;53.686;9.158;2023-06-26T10:41:35;9.68;;;2.60;;
20758;SDS011;10539;53.686;9.158;2023-06-26T10:44:15;10.07;;;2.50;;
20758;SDS011;10539;53.686;9.158;2023-06-26T10:49:18;9.23;;;2.40;;
20758;SDS011;10539;53.686;9.158;2023-06-26T10:51:50;11.65;;;2.83;;
20758;SDS011;10539;53.686;9.158;2023-06-26T10:54:17;8.35;;;2.17;;
20758;SDS011;10539;53.686;9.158;2023-06-26T10:56:48;10.15;;;2.42;;
20758;SDS011;10539;53.686;9.158;2023-06-26T10:59:16;12.35;;;2.53;;
20758;SDS011;10539;53.686;9.158;2023-06-26T11:01:47;7.35;;;2.10;;
20758;SDS011;10539;53.686;9.158;2023-06-26T11:04:35;8.00;;;1.95;;
20758;SDS011;10539;53.686;9.158;2023-06-26T11:07:21;10.20;;;2.25;;
20758;SDS011;10539;53.686;9.158;2023-06-26T11:09:58;7.95;;;1.98;;
20758;SDS011;10539;53.686;9.158;2023-06-26T11:15:10;6.53;;;1.80;;
20758;SDS011;10539;53.686;9.158;2023-06-26T11:17:36;8.75;;;2.10;;
20758;SDS011;10539;53.686;9.158;2023-06-26T11:20:06;9.73;;;2.28;;
20758;SDS011;10539;53.686;9.158;2023-06-26T11:22:40;10.50;;;2.13;;
20758;SDS011;10539;53.686;9.158;2023-06-26T11:25:07;7.97;;;1.80;;
20758;SDS011;10539;53.686;9.158;2023-06-26T11:27:40;12.75;;;2.45;;
20758;SDS011;10539;53.686;9.158;2023-06-26T11:30:08;7.30;;;2.10;;
20758;SDS011;10539;53.686;9.158;2023-06-26T11:32:38;7.20;;;2.03;;
20758;SDS011;10539;53.686;9.158;2023-06-26T11:35:05;7.15;;;1.73;;
20758;SDS011;10539;53.686;9.158;2023-06-26T11:37:31;8.00;;;2.58;;
20758;SDS011;10539;53.686;9.158;2023-06-26T11:39:58;6.95;;;1.70;;
20758;SDS011;10539;53.686;9.158;2023-06-26T11:42:24;6.25;;;2.20;;
20758;SDS011;10539;53.686;9.158;2023-06-26T11:44:50;9.07;;;2.10;;
20758;SDS011;10539;53.686;9.158;2023-06-26T11:47:18;6.70;;;1.92;;
20758;SDS011;10539;53.686;9.158;2023-06-26T11:49:46;7.47;;;1.95;;
20758;SDS011;10539;53.686;9.158;2023-06-26T11:52:13;8.93;;;1.60;;
20758;SDS011;10539;53.686;9.158;2023-06-26T11:54:40;5.60;;;1.70;;
20758;SDS011;10539;53.686;9.158;2023-06-26T11:57:06;4.72;;;1.38;;
20758;SDS011;10539;53.686;9.158;2023-06-26T11:59:36;5.32;;;1.70;;
20758;SDS011;10539;53.686;9.158;2023-06-26T12:02:13;9.45;;;1.90;;
20758;SDS011;10539;53.686;9.158;2023-06-26T12:04:40;7.43;;;1.85;;
20758;SDS011;10539;53.686;9.158;2023-06-26T12:07:07;6.40;;;1.48;;
20758;SDS011;10539;53.686;9.158;2023-06-26T12:09:42;6.78;;;1.90;;
20758;SDS011;10539;53.686;9.158;2023-06-26T12:12:09;5.35;;;1.40;;
20758;SDS011;10539;53.686;9.158;2023-06-26T12:14:36;6.32;;;1.80;;
20758;SDS011;10539;53.686;9.158;2023-06-26T12:17:08;4.70;;;1.60;;
20758;SDS011;10539;53.686;9.158;2023-06-26T12:19:39;6.95;;;1.67;;
20758;SDS011;10539;53.686;9.158;2023-06-26T12:22:09;6.68;;;1.73;;
20758;SDS011;10539;53.686;9.158;2023-06-26T12:24:36;5.30;;;1.60;;
20758;SDS011;10539;53.686;9.158;2023-06-26T12:27:07;9.77;;;1.95;;
20758;SDS011;10539;53.686;9.158;2023-06-26T12:29:38;3.03;;;1.27;;
20758;SDS011;10539;53.686;9.158;2023-06-26T12:32:08;7.53;;;1.50;;
20758;SDS011;10539;53.686;9.158;2023-06-26T12:34:36;5.25;;;1.40;;
20758;SDS011;10539;53.686;9.158;2023-06-26T12:37:06;6.43;;;1.40;;
20758;SDS011;10539;53.686;9.158;2023-06-26T12:39:49;8.50;;;1.80;;
20758;SDS011;10539;53.686;9.158;2023-06-26T12:42:17;6.85;;;1.60;;
20758;SDS011;10539;53.686;9.158;2023-06-26T12:44:44;3.63;;;1.40;;
20758;SDS011;10539;53.686;9.158;2023-06-26T12:47:11;10.23;;;1.67;;
20758;SDS011;10539;53.686;9.158;2023-06-26T12:49:42;6.07;;;1.63;;
20758;SDS011;10539;53.686;9.158;2023-06-26T12:52:10;5.07;;;1.30;;
20758;SDS011;10539;53.686;9.158;2023-06-26T12:54:40;5.00;;;1.67;;
20758;SDS011;10539;53.686;9.158;2023-06-26T12:57:07;3.67;;;1.70;;
20758;SDS011;10539;53.686;9.158;2023-06-26T12:59:33;5.93;;;1.75;;
20758;SDS011;10539;53.686;9.158;2023-06-26T13:02:01;3.95;;;1.25;;
20758;SDS011;10539;53.686;9.158;2023-06-26T13:04:27;3.72;;;1.30;;
20758;SDS011;10539;53.686;9.158;2023-06-26T13:06:53;4.00;;;1.48;;
20758;SDS011;10539;53.686;9.158;2023-06-26T13:09:20;6.88;;;1.50;;
20758;SDS011;10539;53.686;9.158;2023-06-26T13:11:46;3.65;;;1.10;;
20758;SDS011;10539;53.686;9.158;2023-06-26T13:14:12;2.00;;;0.98;;
20758;SDS011;10539;53.686;9.158;2023-06-26T13:16:38;3.72;;;1.40;;
20758;SDS011;10539;53.686;9.158;2023-06-26T13:19:04;3.28;;;1.20;;
20758;SDS011;10539;53.686;9.158;2023-06-26T13:21:30;3.38;;;1.40;;
20758;SDS011;10539;53.686;9.158;2023-06-26T13:23:56;2.92;;;1.23;;
20758;SDS011;10539;53.686;9.158;2023-06-26T13:26:23;3.75;;;1.40;;
20758;SDS011;10539;53.686;9.158;2023-06-26T13:28:49;3.13;;;1.15;;
20758;SDS011;10539;53.686;9.158;2023-06-26T13:31:15;7.20;;;1.42;;
20758;SDS011;10539;53.686;9.158;2023-06-26T13:33:41;3.88;;;1.00;;
20758;SDS011;10539;53.686;9.158;2023-06-26T13:36:07;5.20;;;1.27;;
20758;SDS011;10539;53.686;9.158;2023-06-26T13:38:33;3.92;;;1.30;;
20758;SDS011;10539;53.686;9.158;2023-06-26T13:40:59;5.15;;;1.10;;
20758;SDS011;10539;53.686;9.158;2023-06-26T13:43:29;3.05;;;1.42;;
20758;SDS011;10539;53.686;9.158;2023-06-26T13:45:55;3.72;;;1.27;;
20758;SDS011;10539;53.686;9.158;2023-06-26T13:48:21;2.60;;;1.00;;
20758;SDS011;10539;53.686;9.158;2023-06-26T13:50:49;4.15;;;1.33;;
20758;SDS011;10539;53.686;9.158;2023-06-26T13:53:15;2.72;;;1.10;;
20758;SDS011;10539;53.686;9.158;2023-06-26T13:55:42;5.68;;;1.60;;
20758;SDS011;10539;53.686;9.158;2023-06-26T13:58:08;6.25;;;1.35;;
20758;SDS011;10539;53.686;9.158;2023-06-26T14:00:35;3.20;;;1.55;;
20758;SDS011;10539;53.686;9.158;2023-06-26T14:03:02;4.32;;;1.60;;
20758;SDS011;10539;53.686;9.158;2023-06-26T14:05:32;5.40;;;1.30;;
20758;SDS011;10539;53.686;9.158;2023-06-26T14:07:59;4.50;;;1.83;;
20758;SDS011;10539;53.686;9.158;2023-06-26T14:10:24;5.25;;;1.70;;
20758;SDS011;10539;53.686;9.158;2023-06-26T14:12:50;3.83;;;1.55;;
20758;SDS011;10539;53.686;9.158;2023-06-26T14:15:16;3.97;;;1.55;;
20758;SDS011;10539;53.686;9.158;2023-06-26T14:17:42;3.67;;;0.90;;
20758;SDS011;10539;53.686;9.158;2023-06-26T14:20:08;4.40;;;0.98;;
20758;SDS011;10539;53.686;9.158;2023-06-26T14:22:37;2.42;;;1.30;;
20758;SDS011;10539;53.686;9.158;2023-06-26T14:25:04;4.13;;;1.40;;
20758;SDS011;10539;53.686;9.158;2023-06-26T14:27:31;2.90;;;1.10;;
20758;SDS011;10539;53.686;9.158;2023-06-26T14:29:56;4.45;;;1.23;;
20758;SDS011;10539;53.686;9.158;2023-06-26T14:32:22;4.05;;;1.38;;
20758;SDS011;10539;53.686;9.158;2023-06-26T14:34:48;4.38;;;1.40;;
20758;SDS011;10539;53.686;9.158;2023-06-26T14:37:13;2.72;;;1.33;;
20758;SDS011;10539;53.686;9.158;2023-06-26T14:39:39;4.55;;;1.27;;
20758;SDS011;10539;53.686;9.158;2023-06-26T14:42:05;3.53;;;1.65;;
20758;SDS011;10539;53.686;9.158;2023-06-26T14:44:32;3.13;;;1.40;;
20758;SDS011;10539;53.686;9.158;2023-06-26T14:46:58;3.17;;;1.13;;
20758;SDS011;10539;53.686;9.158;2023-06-26T14:49:24;4.28;;;1.38;;